createdAt,value
2019-03-08T00:00:44.075Z,989.63
2019-03-08T00:01:44.081Z,989.60
2019-03-08T00:02:44.087Z,989.61
2019-03-08T00:03:44.092Z,989.62
2019-03-08T00:04:44.096Z,989.60
2019-03-08T00:05:44.100Z,989.60
2019-03-08T00:06:44.105Z,989.52
2019-03-08T00:07:44.111Z,989.56
2019-03-08T00:08:44.118Z,989.49
2019-03-08T00:09:44.126Z,989.52
2019-03-08T00:10:44.127Z,989.49
2019-03-08T00:11:44.134Z,989.53
2019-03-08T00:12:44.138Z,989.49
2019-03-08T00:13:44.142Z,989.50
2019-03-08T00:14:44.148Z,989.45
2019-03-08T00:15:44.153Z,989.54
2019-03-08T00:16:44.158Z,989.48
2019-03-08T00:17:44.163Z,989.49
2019-03-08T00:18:44.167Z,989.44
2019-03-08T00:19:44.173Z,989.45
2019-03-08T00:20:44.179Z,989.41
2019-03-08T00:21:44.181Z,989.42
2019-03-08T00:22:44.186Z,989.40
2019-03-08T00:23:44.198Z,989.39
2019-03-08T00:24:44.199Z,989.42
2019-03-08T00:25:44.206Z,989.39
2019-03-08T00:26:44.207Z,989.39
2019-03-08T00:27:44.214Z,989.36
2019-03-08T00:28:44.219Z,989.42
2019-03-08T00:29:44.260Z,989.37
2019-03-08T00:30:44.231Z,989.38
2019-03-08T00:31:44.234Z,989.39
2019-03-08T00:32:44.239Z,989.36
2019-03-08T00:33:44.242Z,989.34
2019-03-08T00:34:44.248Z,989.31
2019-03-08T00:35:44.253Z,989.35
2019-03-08T00:36:44.260Z,989.34
2019-03-08T00:37:44.263Z,989.35
2019-03-08T00:38:44.268Z,989.35
2019-03-08T00:39:44.272Z,989.31
2019-03-08T00:40:44.280Z,989.34
2019-03-08T00:41:44.284Z,989.25
2019-03-08T00:42:44.290Z,989.19
2019-03-08T00:43:44.293Z,989.18
2019-03-08T00:44:44.299Z,989.13
2019-03-08T00:45:44.305Z,989.12
2019-03-08T00:46:44.311Z,989.12
2019-03-08T00:47:44.315Z,989.12
2019-03-08T00:48:44.319Z,989.11
2019-03-08T00:49:44.322Z,989.03
2019-03-08T00:50:44.335Z,989.11
2019-03-08T00:51:44.336Z,989.19
2019-03-08T00:52:44.344Z,989.21
2019-03-08T00:53:44.343Z,989.22
2019-03-08T00:54:44.349Z,989.21
2019-03-08T00:55:44.354Z,989.21
2019-03-08T00:56:44.360Z,989.18
2019-03-08T00:57:44.370Z,989.15
2019-03-08T00:58:44.369Z,989.09
2019-03-08T00:59:44.374Z,989.10
2019-03-08T01:00:44.379Z,989.11
2019-03-08T01:01:44.384Z,989.14
2019-03-08T01:02:44.391Z,989.08
2019-03-08T01:03:44.393Z,989.06
2019-03-08T01:04:44.406Z,989.03
2019-03-08T01:05:44.404Z,989.07
2019-03-08T01:06:44.408Z,989.03
2019-03-08T01:07:44.415Z,988.97
2019-03-08T01:08:44.420Z,988.94
2019-03-08T01:09:44.424Z,988.88
2019-03-08T01:10:44.430Z,988.85
2019-03-08T01:11:45.345Z,988.86
2019-03-08T01:12:44.439Z,988.88
2019-03-08T01:13:44.444Z,988.90
2019-03-08T01:14:44.449Z,988.80
2019-03-08T01:15:44.455Z,988.85
2019-03-08T01:16:44.461Z,988.80
2019-03-08T01:17:44.466Z,988.78
2019-03-08T01:18:44.470Z,988.72
2019-03-08T01:19:44.474Z,988.70
2019-03-08T01:20:44.479Z,988.67
2019-03-08T01:21:44.483Z,988.72
2019-03-08T01:22:44.491Z,988.72
2019-03-08T01:23:44.500Z,988.71
2019-03-08T01:24:44.503Z,988.72
2019-03-08T01:25:44.505Z,988.73
2019-03-08T01:26:44.510Z,988.70
2019-03-08T01:27:44.515Z,988.67
2019-03-08T01:28:44.527Z,988.68
2019-03-08T01:29:44.524Z,988.67
2019-03-08T01:30:44.529Z,988.68
2019-03-08T01:31:44.538Z,988.64
2019-03-08T01:32:44.540Z,988.64
2019-03-08T01:33:44.545Z,988.62
2019-03-08T01:34:44.575Z,988.64
2019-03-08T01:35:44.557Z,988.66
2019-03-08T01:36:44.564Z,988.62
2019-03-08T01:37:44.565Z,988.66
2019-03-08T01:38:44.571Z,988.58
2019-03-08T01:39:44.574Z,988.63
2019-03-08T01:40:44.581Z,988.63
2019-03-08T01:41:44.585Z,988.60
2019-03-08T01:42:44.589Z,988.60
2019-03-08T01:43:44.596Z,988.54
2019-03-08T01:44:44.603Z,988.58
2019-03-08T01:45:44.604Z,988.51
2019-03-08T01:46:44.617Z,988.61
2019-03-08T01:47:44.616Z,988.52
2019-03-08T01:48:44.622Z,988.58
2019-03-08T01:49:44.625Z,988.61
2019-03-08T01:50:44.635Z,988.57
2019-03-08T01:51:44.637Z,988.56
2019-03-08T01:52:44.641Z,988.58
2019-03-08T01:53:44.646Z,988.59
2019-03-08T01:54:44.651Z,988.60
2019-03-08T01:55:44.655Z,988.59
2019-03-08T01:56:44.662Z,988.49
2019-03-08T01:57:44.667Z,988.53
2019-03-08T01:58:44.671Z,988.46
2019-03-08T01:59:44.678Z,988.43
2019-03-08T02:00:44.682Z,988.37
2019-03-08T02:01:44.686Z,988.34
2019-03-08T02:02:44.693Z,988.38
2019-03-08T02:03:44.699Z,988.44
2019-03-08T02:04:44.703Z,988.39
2019-03-08T02:05:44.706Z,988.40
2019-03-08T02:06:44.715Z,988.43
2019-03-08T02:07:44.716Z,988.43
2019-03-08T02:08:44.723Z,988.41
2019-03-08T02:09:44.727Z,988.39
2019-03-08T02:10:44.732Z,988.38
2019-03-08T02:11:44.737Z,988.36
2019-03-08T02:12:44.743Z,988.37
2019-03-08T02:13:44.746Z,988.37
2019-03-08T02:14:44.752Z,988.31
2019-03-08T02:15:44.761Z,988.36
2019-03-08T02:16:44.763Z,988.38
2019-03-08T02:17:44.768Z,988.38
2019-03-08T02:18:44.773Z,988.31
2019-03-08T02:19:44.777Z,988.32
2019-03-08T02:20:44.785Z,988.32
2019-03-08T02:21:44.787Z,988.33
2019-03-08T02:22:44.794Z,988.31
2019-03-08T02:23:44.797Z,988.31
2019-03-08T02:24:44.801Z,988.27
2019-03-08T02:25:45.668Z,988.27
2019-03-08T02:26:45.016Z,988.30
2019-03-08T02:27:44.817Z,988.29
2019-03-08T02:28:44.828Z,988.28
2019-03-08T02:29:44.831Z,988.26
2019-03-08T02:30:44.847Z,988.30
2019-03-08T02:31:44.843Z,988.25
2019-03-08T02:32:44.844Z,988.31
2019-03-08T02:33:44.847Z,988.29
2019-03-08T02:34:44.852Z,988.30
2019-03-08T02:35:44.858Z,988.33
2019-03-08T02:36:44.865Z,988.32
2019-03-08T02:37:44.867Z,988.28
2019-03-08T02:38:44.872Z,988.24
2019-03-08T02:39:44.878Z,988.30
2019-03-08T02:40:44.883Z,988.25
2019-03-08T02:41:44.888Z,988.26
2019-03-08T02:42:44.891Z,988.32
2019-03-08T02:43:44.898Z,988.36
2019-03-08T02:44:44.903Z,988.37
2019-03-08T02:45:44.907Z,988.33
2019-03-08T02:46:44.913Z,988.28
2019-03-08T02:47:44.918Z,988.28
2019-03-08T02:48:44.924Z,988.30
2019-03-08T02:49:44.930Z,988.32
2019-03-08T02:50:44.932Z,988.36
2019-03-08T02:51:44.947Z,988.36
2019-03-08T02:52:44.944Z,988.35
2019-03-08T02:53:44.946Z,988.33
2019-03-08T02:54:44.954Z,988.36
2019-03-08T02:55:44.958Z,988.36
2019-03-08T02:56:44.963Z,988.29
2019-03-08T02:57:44.966Z,988.30
2019-03-08T02:58:44.975Z,988.23
2019-03-08T02:59:44.980Z,988.19
2019-03-08T03:00:44.990Z,988.20
2019-03-08T03:01:44.987Z,988.25
2019-03-08T03:02:44.992Z,988.27
2019-03-08T03:03:45.009Z,988.23
2019-03-08T03:04:45.003Z,988.23
2019-03-08T03:05:45.006Z,988.24
2019-03-08T03:06:45.012Z,988.29
2019-03-08T03:07:45.020Z,988.29
2019-03-08T03:08:45.023Z,988.28
2019-03-08T03:09:45.028Z,988.32
2019-03-08T03:10:45.032Z,988.32
2019-03-08T03:11:45.039Z,988.28
2019-03-08T03:12:45.044Z,988.27
2019-03-08T03:13:45.046Z,988.25
2019-03-08T03:14:45.053Z,988.28
2019-03-08T03:15:45.067Z,988.26
2019-03-08T03:16:45.062Z,988.28
2019-03-08T03:17:45.069Z,988.32
2019-03-08T03:18:45.071Z,988.26
2019-03-08T03:19:45.082Z,988.25
2019-03-08T03:20:45.083Z,988.23
2019-03-08T03:21:45.088Z,988.29
2019-03-08T03:22:45.095Z,988.32
2019-03-08T03:23:45.099Z,988.30
2019-03-08T03:24:45.103Z,988.35
2019-03-08T03:25:45.109Z,988.33
2019-03-08T03:26:45.113Z,988.37
2019-03-08T03:27:45.118Z,988.40
2019-03-08T03:28:45.124Z,988.41
2019-03-08T03:29:45.129Z,988.36
2019-03-08T03:30:45.135Z,988.42
2019-03-08T03:31:45.174Z,988.37
2019-03-08T03:32:45.340Z,988.38
2019-03-08T03:33:45.159Z,988.38
2019-03-08T03:34:45.157Z,988.42
2019-03-08T03:35:45.160Z,988.41
2019-03-08T03:36:45.164Z,988.34
2019-03-08T03:37:45.168Z,988.32
2019-03-08T03:38:45.173Z,988.34
2019-03-08T03:39:45.364Z,988.33
2019-03-08T03:40:45.184Z,988.47
2019-03-08T03:41:45.190Z,988.44
2019-03-08T03:42:45.194Z,988.43
2019-03-08T03:43:45.199Z,988.46
2019-03-08T03:44:45.203Z,988.45
2019-03-08T03:45:45.207Z,988.45
2019-03-08T03:46:45.476Z,988.47
2019-03-08T03:47:45.219Z,988.44
2019-03-08T03:48:45.242Z,988.38
2019-03-08T03:49:45.235Z,988.44
2019-03-08T03:50:45.233Z,988.47
2019-03-08T03:51:45.239Z,988.45
2019-03-08T03:52:45.243Z,988.42
2019-03-08T03:53:45.249Z,988.40
2019-03-08T03:54:45.254Z,988.47
2019-03-08T03:55:45.260Z,988.43
2019-03-08T03:56:45.264Z,988.44
2019-03-08T03:57:45.270Z,988.43
2019-03-08T03:58:45.273Z,988.45
2019-03-08T03:59:45.278Z,988.48
2019-03-08T04:00:45.285Z,988.43
2019-03-08T04:01:45.288Z,988.43
2019-03-08T04:02:45.296Z,988.47
2019-03-08T04:03:45.301Z,988.48
2019-03-08T04:04:45.304Z,988.50
2019-03-08T04:05:45.325Z,988.44
2019-03-08T04:06:45.314Z,988.40
2019-03-08T04:07:45.325Z,988.50
2019-03-08T04:08:45.324Z,988.44
2019-03-08T04:09:45.329Z,988.45
2019-03-08T04:10:45.332Z,988.44
2019-03-08T04:11:45.339Z,988.40
2019-03-08T04:12:45.346Z,988.49
2019-03-08T04:13:45.348Z,988.60
2019-03-08T04:14:45.355Z,988.55
2019-03-08T04:15:45.362Z,988.61
2019-03-08T04:16:45.362Z,988.55
2019-03-08T04:17:45.367Z,988.60
2019-03-08T04:18:45.372Z,988.60
2019-03-08T04:19:45.377Z,988.62
2019-03-08T04:20:45.406Z,988.64
2019-03-08T04:21:45.388Z,988.62
2019-03-08T04:22:45.393Z,988.63
2019-03-08T04:23:45.398Z,988.63
2019-03-08T04:24:45.406Z,988.66
2019-03-08T04:25:45.459Z,988.64
2019-03-08T04:26:45.418Z,988.69
2019-03-08T04:27:45.417Z,988.67
2019-03-08T04:28:45.422Z,988.65
2019-03-08T04:29:45.435Z,988.70
2019-03-08T04:30:45.434Z,988.70
2019-03-08T04:31:45.440Z,988.70
2019-03-08T04:32:45.444Z,988.77
2019-03-08T04:33:45.450Z,988.79
2019-03-08T04:34:45.453Z,988.77
2019-03-08T04:35:45.459Z,988.83
2019-03-08T04:36:45.464Z,988.79
2019-03-08T04:37:45.468Z,988.89
2019-03-08T04:38:45.479Z,988.82
2019-03-08T04:39:45.498Z,988.84
2019-03-08T04:40:45.488Z,988.86
2019-03-08T04:41:45.487Z,988.92
2019-03-08T04:42:45.495Z,988.88
2019-03-08T04:43:45.499Z,988.89
2019-03-08T04:44:45.504Z,988.93
2019-03-08T04:45:45.508Z,988.93
2019-03-08T04:46:45.512Z,988.92
2019-03-08T04:47:45.518Z,988.90
2019-03-08T04:48:45.525Z,988.87
2019-03-08T04:49:45.527Z,988.87
2019-03-08T04:50:45.533Z,988.85
2019-03-08T04:51:45.537Z,988.79
2019-03-08T04:52:45.550Z,988.87
2019-03-08T04:53:45.547Z,988.87
2019-03-08T04:54:45.553Z,988.88
2019-03-08T04:55:45.558Z,988.89
2019-03-08T04:56:45.565Z,988.93
2019-03-08T04:57:45.578Z,988.92
2019-03-08T04:58:45.573Z,988.92
2019-03-08T04:59:45.580Z,988.84
2019-03-08T05:00:45.584Z,988.89
2019-03-08T05:01:45.592Z,988.92
2019-03-08T05:02:45.592Z,988.92
2019-03-08T05:03:45.598Z,988.92
2019-03-08T05:04:45.603Z,988.89
2019-03-08T05:05:45.608Z,988.96
2019-03-08T05:06:45.641Z,988.94
2019-03-08T05:07:45.618Z,988.96
2019-03-08T05:08:45.888Z,988.95
2019-03-08T05:09:45.628Z,988.97
2019-03-08T05:10:45.632Z,988.99
2019-03-08T05:11:45.638Z,989.01
2019-03-08T05:12:45.643Z,989.01
2019-03-08T05:13:45.646Z,988.98
2019-03-08T05:14:45.652Z,989.03
2019-03-08T05:15:45.657Z,989.03
2019-03-08T05:16:45.662Z,989.06
2019-03-08T05:17:45.668Z,989.01
2019-03-08T05:18:45.699Z,989.03
2019-03-08T05:19:45.678Z,989.07
2019-03-08T05:20:45.684Z,989.12
2019-03-08T05:21:45.686Z,989.12
2019-03-08T05:22:45.695Z,989.16
2019-03-08T05:23:45.699Z,989.24
2019-03-08T05:24:45.703Z,989.18
2019-03-08T05:25:45.968Z,989.18
2019-03-08T05:26:45.714Z,989.08
2019-03-08T05:27:45.717Z,989.20
2019-03-08T05:28:45.725Z,989.20
2019-03-08T05:29:45.727Z,989.20
2019-03-08T05:30:45.733Z,989.19
2019-03-08T05:31:45.738Z,989.22
2019-03-08T05:32:45.743Z,989.17
2019-03-08T05:33:45.749Z,989.16
2019-03-08T05:34:45.755Z,989.19
2019-03-08T05:35:45.757Z,989.15
2019-03-08T05:36:45.762Z,989.13
2019-03-08T05:37:46.747Z,989.17
2019-03-08T05:38:45.773Z,989.13
2019-03-08T05:39:45.779Z,989.18
2019-03-08T05:40:45.790Z,989.15
2019-03-08T05:41:45.789Z,989.20
2019-03-08T05:42:45.792Z,989.22
2019-03-08T05:43:45.799Z,989.19
2019-03-08T05:44:45.804Z,989.19
2019-03-08T05:45:45.807Z,989.14
2019-03-08T05:46:45.813Z,989.21
2019-03-08T05:47:45.817Z,989.19
2019-03-08T05:48:45.825Z,989.19
2019-03-08T05:49:45.828Z,989.22
2019-03-08T05:50:45.832Z,989.16
2019-03-08T05:51:45.837Z,989.21
2019-03-08T05:52:45.843Z,989.23
2019-03-08T05:53:45.850Z,989.15
2019-03-08T05:54:45.854Z,989.24
2019-03-08T05:55:45.858Z,989.19
2019-03-08T05:56:45.862Z,989.23
2019-03-08T05:57:45.868Z,989.26
2019-03-08T05:58:45.875Z,989.17
2019-03-08T05:59:45.879Z,989.19
2019-03-08T06:00:45.884Z,989.25
2019-03-08T06:01:45.887Z,989.28
2019-03-08T06:02:45.896Z,989.23
2019-03-08T06:03:45.897Z,989.27
2019-03-08T06:04:45.903Z,989.28
2019-03-08T06:05:45.909Z,989.23
2019-03-08T06:06:45.914Z,989.28
2019-03-08T06:07:45.919Z,989.28
2019-03-08T06:08:45.924Z,989.31
2019-03-08T06:09:45.929Z,989.26
2019-03-08T06:10:45.934Z,989.26
2019-03-08T06:11:45.941Z,989.31
2019-03-08T06:12:46.220Z,989.23
2019-03-08T06:13:45.949Z,989.27
2019-03-08T06:14:45.953Z,989.27
2019-03-08T06:15:45.958Z,989.27
2019-03-08T06:16:45.965Z,989.31
2019-03-08T06:17:45.967Z,989.27
2019-03-08T06:18:45.974Z,989.29
2019-03-08T06:19:45.979Z,989.28
2019-03-08T06:20:45.984Z,989.34
2019-03-08T06:21:45.989Z,989.30
2019-03-08T06:22:45.995Z,989.31
2019-03-08T06:23:46.000Z,989.27
2019-03-08T06:24:46.005Z,989.28
2019-03-08T06:25:46.009Z,989.28
2019-03-08T06:26:46.015Z,989.32
2019-03-08T06:27:46.043Z,989.26
2019-03-08T06:28:46.025Z,989.24
2019-03-08T06:29:46.028Z,989.28
2019-03-08T06:30:46.034Z,989.32
2019-03-08T06:31:46.041Z,989.35
2019-03-08T06:32:46.052Z,989.37
2019-03-08T06:33:46.051Z,989.37
2019-03-08T06:34:46.058Z,989.36
2019-03-08T06:35:46.060Z,989.32
2019-03-08T06:36:46.068Z,989.30
2019-03-08T06:37:46.071Z,989.32
2019-03-08T06:38:46.076Z,989.35
2019-03-08T06:39:46.121Z,989.31
2019-03-08T06:40:46.084Z,989.39
2019-03-08T06:41:46.090Z,989.37
2019-03-08T06:42:46.095Z,989.31
2019-03-08T06:43:46.100Z,989.28
2019-03-08T06:44:46.112Z,989.30
2019-03-08T06:45:46.160Z,989.32
2019-03-08T06:46:46.153Z,989.34
2019-03-08T06:47:46.124Z,989.36
2019-03-08T06:48:46.125Z,989.35
2019-03-08T06:49:46.240Z,989.35
2019-03-08T06:50:46.140Z,989.32
2019-03-08T06:51:46.142Z,989.29
2019-03-08T06:52:46.145Z,989.35
2019-03-08T06:53:46.152Z,989.33
2019-03-08T06:54:46.164Z,989.27
2019-03-08T06:55:46.161Z,989.32
2019-03-08T06:56:46.165Z,989.34
2019-03-08T06:57:46.172Z,989.36
2019-03-08T06:58:46.176Z,989.40
2019-03-08T06:59:46.182Z,989.36
2019-03-08T07:00:46.189Z,989.40
2019-03-08T07:01:46.191Z,989.39
2019-03-08T07:02:46.195Z,989.41
2019-03-08T07:03:46.201Z,989.39
2019-03-08T07:04:46.205Z,989.39
2019-03-08T07:05:46.211Z,989.33
2019-03-08T07:06:46.217Z,989.38
2019-03-08T07:07:46.221Z,989.34
2019-03-08T07:08:46.225Z,989.40
2019-03-08T07:09:46.230Z,989.38
2019-03-08T07:10:46.236Z,989.40
2019-03-08T07:11:46.241Z,989.39
2019-03-08T07:12:46.247Z,989.40
2019-03-08T07:13:46.252Z,989.39
2019-03-08T07:14:46.256Z,989.42
2019-03-08T07:15:46.262Z,989.39
2019-03-08T07:16:46.267Z,989.37
2019-03-08T07:17:46.277Z,989.39
2019-03-08T07:18:46.276Z,989.41
2019-03-08T07:19:46.281Z,989.43
2019-03-08T07:20:46.287Z,989.44
2019-03-08T07:21:46.293Z,989.43
2019-03-08T07:22:46.327Z,989.44
2019-03-08T07:23:46.301Z,989.42
2019-03-08T07:24:46.305Z,989.45
2019-03-08T07:25:51.846Z,989.44
2019-03-08T07:26:46.316Z,989.44
2019-03-08T07:27:46.320Z,989.45
2019-03-08T07:28:46.327Z,989.44
2019-03-08T07:29:46.332Z,989.43
2019-03-08T07:30:46.339Z,989.37
2019-03-08T07:31:46.340Z,989.39
2019-03-08T07:32:46.354Z,989.42
2019-03-08T07:33:52.891Z,989.37
2019-03-08T07:34:46.355Z,989.35
2019-03-08T07:35:46.360Z,989.38
2019-03-08T07:36:46.368Z,989.43
2019-03-08T07:37:46.371Z,989.39
2019-03-08T07:38:46.377Z,989.36
2019-03-08T07:39:46.381Z,989.44
2019-03-08T07:40:46.410Z,989.40
2019-03-08T07:41:46.391Z,989.33
2019-03-08T07:42:46.397Z,989.36
2019-03-08T07:43:46.403Z,989.35
2019-03-08T07:44:46.409Z,989.36
2019-03-08T07:45:46.412Z,989.36
2019-03-08T07:46:46.419Z,989.36
2019-03-08T07:47:46.423Z,989.38
2019-03-08T07:48:46.428Z,989.33
2019-03-08T07:49:46.431Z,989.40
2019-03-08T07:50:46.977Z,989.39
2019-03-08T07:51:46.444Z,989.36
2019-03-08T07:52:46.448Z,989.38
2019-03-08T07:53:46.452Z,989.42
2019-03-08T07:54:52.863Z,989.39
2019-03-08T07:55:46.609Z,989.34
2019-03-08T07:56:46.468Z,989.34
2019-03-08T07:57:46.473Z,989.31
2019-03-08T07:58:46.478Z,989.33
2019-03-08T07:59:53.321Z,989.30
2019-03-08T08:00:46.487Z,989.26
2019-03-08T08:01:46.494Z,989.32
2019-03-08T08:02:46.499Z,989.36
2019-03-08T08:03:46.504Z,989.31
2019-03-08T08:04:46.509Z,989.31
2019-03-08T08:05:46.516Z,989.33
2019-03-08T08:06:46.520Z,989.31
2019-03-08T08:07:46.523Z,989.26
2019-03-08T08:08:51.607Z,989.31
2019-03-08T08:09:46.534Z,989.32
2019-03-08T08:10:46.540Z,989.27
2019-03-08T08:11:46.545Z,989.26
2019-03-08T08:12:46.556Z,989.23
2019-03-08T08:13:46.554Z,989.26
2019-03-08T08:14:46.561Z,989.23
2019-03-08T08:15:46.564Z,989.26
2019-03-08T08:16:46.570Z,989.27
2019-03-08T08:17:46.706Z,989.27
2019-03-08T08:18:46.580Z,989.26
2019-03-08T08:19:46.586Z,989.22
2019-03-08T08:20:46.591Z,989.24
2019-03-08T08:21:46.594Z,989.20
2019-03-08T08:22:46.600Z,989.25
2019-03-08T08:23:46.606Z,989.20
2019-03-08T08:24:46.612Z,989.24
2019-03-08T08:25:46.615Z,989.20
2019-03-08T08:26:46.621Z,989.25
2019-03-08T08:27:46.626Z,989.23
2019-03-08T08:28:49.920Z,989.22
2019-03-08T08:29:46.636Z,989.22
2019-03-08T08:30:46.641Z,989.29
2019-03-08T08:31:46.665Z,989.24
2019-03-08T08:32:46.652Z,989.27
2019-03-08T08:33:46.658Z,989.21
2019-03-08T08:34:46.662Z,989.25
2019-03-08T08:35:46.668Z,989.23
2019-03-08T08:36:46.673Z,989.23
2019-03-08T08:37:46.677Z,989.26
2019-03-08T08:38:46.682Z,989.24
2019-03-08T08:39:46.686Z,989.26
2019-03-08T08:40:46.694Z,989.29
2019-03-08T08:41:46.697Z,989.26
2019-03-08T08:42:46.702Z,989.28
2019-03-08T08:43:46.707Z,989.26
2019-03-08T08:44:46.714Z,989.28
2019-03-08T08:45:46.717Z,989.33
2019-03-08T08:46:46.722Z,989.28
2019-03-08T08:47:46.738Z,989.32
2019-03-08T08:48:46.746Z,989.33
2019-03-08T08:49:54.273Z,989.28
2019-03-08T08:50:46.742Z,989.31
2019-03-08T08:51:46.750Z,989.27
2019-03-08T08:52:46.755Z,989.25
2019-03-08T08:53:46.759Z,989.31
2019-03-08T08:54:46.763Z,989.30
2019-03-08T08:55:46.769Z,989.25
2019-03-08T08:56:46.787Z,989.20
2019-03-08T08:57:46.779Z,989.25
2019-03-08T08:58:46.784Z,989.19
2019-03-08T08:59:46.789Z,989.25
2019-03-08T09:00:46.795Z,989.28
2019-03-08T09:01:46.805Z,989.26
2019-03-08T09:02:46.804Z,989.24
2019-03-08T09:03:46.814Z,989.21
2019-03-08T09:04:46.816Z,989.20
2019-03-08T09:05:46.823Z,989.22
2019-03-08T09:06:46.830Z,989.18
2019-03-08T09:07:46.831Z,989.22
2019-03-08T09:08:47.434Z,989.21
2019-03-08T09:09:46.839Z,989.19
2019-03-08T09:10:46.845Z,989.19
2019-03-08T09:11:52.165Z,989.21
2019-03-08T09:12:46.856Z,989.17
2019-03-08T09:13:46.859Z,989.14
2019-03-08T09:14:47.171Z,989.14
2019-03-08T09:15:46.871Z,989.17
2019-03-08T09:16:46.879Z,989.27
2019-03-08T09:17:46.881Z,989.27
2019-03-08T09:18:46.886Z,989.25
2019-03-08T09:19:46.892Z,989.25
2019-03-08T09:20:46.895Z,989.28
2019-03-08T09:21:46.902Z,989.16
2019-03-08T09:22:46.909Z,989.29
2019-03-08T09:23:46.912Z,989.28
2019-03-08T09:24:46.917Z,989.29
2019-03-08T09:25:46.921Z,989.19
2019-03-08T09:26:46.929Z,989.25
2019-03-08T09:27:46.932Z,989.15
2019-03-08T09:28:46.936Z,989.22
2019-03-08T09:29:46.942Z,989.18
2019-03-08T09:30:46.951Z,989.26
2019-03-08T09:31:46.953Z,989.16
2019-03-08T09:32:46.959Z,989.21
2019-03-08T09:33:46.962Z,989.16
2019-03-08T09:34:46.966Z,989.13
2019-03-08T09:35:46.975Z,989.09
2019-03-08T09:36:46.978Z,989.13
2019-03-08T09:37:46.984Z,989.14
2019-03-08T09:38:46.987Z,989.16
2019-03-08T09:39:46.996Z,989.09
2019-03-08T09:40:46.997Z,989.14
2019-03-08T09:41:47.005Z,989.13
2019-03-08T09:42:47.011Z,989.10
2019-03-08T09:43:47.014Z,989.05
2019-03-08T09:44:47.020Z,989.05
2019-03-08T09:45:47.023Z,989.11
2019-03-08T09:46:47.037Z,989.00
2019-03-08T09:47:47.033Z,989.06
2019-03-08T09:48:48.814Z,989.03
2019-03-08T09:49:47.064Z,989.07
2019-03-08T09:50:47.050Z,989.02
2019-03-08T09:51:47.055Z,989.07
2019-03-08T09:52:47.083Z,989.01
2019-03-08T09:53:47.063Z,989.00
2019-03-08T09:54:47.069Z,988.98
2019-03-08T09:55:47.075Z,989.02
2019-03-08T09:56:47.084Z,988.98
2019-03-08T09:57:47.085Z,988.97
2019-03-08T09:58:47.090Z,988.97
2019-03-08T09:59:47.095Z,988.94
2019-03-08T10:00:47.928Z,988.95
2019-03-08T10:01:47.106Z,988.91
2019-03-08T10:02:47.124Z,988.89
2019-03-08T10:03:47.125Z,988.91
2019-03-08T10:04:47.121Z,988.92
2019-03-08T10:05:47.171Z,988.94
2019-03-08T10:06:47.131Z,988.93
2019-03-08T10:07:47.135Z,988.87
2019-03-08T10:08:47.143Z,988.91
2019-03-08T10:09:47.146Z,988.99
2019-03-08T10:10:47.152Z,988.93
2019-03-08T10:11:47.157Z,988.94
2019-03-08T10:12:47.162Z,988.93
2019-03-08T10:13:47.166Z,988.90
2019-03-08T10:14:47.184Z,988.89
2019-03-08T10:15:47.177Z,988.92
2019-03-08T10:16:47.182Z,988.87
2019-03-08T10:17:47.186Z,988.91
2019-03-08T10:18:47.192Z,988.89
2019-03-08T10:19:47.198Z,988.88
2019-03-08T10:20:47.202Z,988.82
2019-03-08T10:21:47.208Z,988.81
2019-03-08T10:22:47.212Z,988.83
2019-03-08T10:23:47.216Z,988.78
2019-03-08T10:24:47.223Z,988.74
2019-03-08T10:25:47.229Z,988.80
2019-03-08T10:26:47.231Z,988.72
2019-03-08T10:27:47.238Z,988.81
2019-03-08T10:28:47.243Z,988.73
2019-03-08T10:29:47.246Z,988.70
2019-03-08T10:30:47.253Z,988.72
2019-03-08T10:31:47.260Z,988.76
2019-03-08T10:32:47.264Z,988.70
2019-03-08T10:33:47.268Z,988.73
2019-03-08T10:34:47.274Z,988.75
2019-03-08T10:35:47.283Z,988.70
2019-03-08T10:36:47.284Z,988.74
2019-03-08T10:37:47.290Z,988.70
2019-03-08T10:38:47.295Z,988.70
2019-03-08T10:39:48.529Z,988.67
2019-03-08T10:40:47.344Z,988.66
2019-03-08T10:41:47.312Z,988.67
2019-03-08T10:42:47.314Z,988.62
2019-03-08T10:43:47.323Z,988.60
2019-03-08T10:44:47.325Z,988.63
2019-03-08T10:45:47.329Z,988.64
2019-03-08T10:46:47.338Z,988.59
2019-03-08T10:47:55.789Z,988.59
2019-03-08T10:48:47.344Z,988.60
2019-03-08T10:49:54.858Z,988.54
2019-03-08T10:50:47.355Z,988.55
2019-03-08T10:51:47.359Z,988.59
2019-03-08T10:52:47.367Z,988.60
2019-03-08T10:53:47.380Z,988.56
2019-03-08T10:54:47.376Z,988.58
2019-03-08T10:55:47.381Z,988.58
2019-03-08T10:56:47.386Z,988.53
2019-03-08T10:57:47.392Z,988.50
2019-03-08T10:58:47.395Z,988.52
2019-03-08T10:59:47.401Z,988.48
2019-03-08T11:00:47.407Z,988.50
2019-03-08T11:01:47.416Z,988.48
2019-03-08T11:02:48.240Z,988.46
2019-03-08T11:03:47.422Z,988.43
2019-03-08T11:04:47.426Z,988.40
2019-03-08T11:05:47.430Z,988.39
2019-03-08T11:06:47.437Z,988.34
2019-03-08T11:07:47.441Z,988.39
2019-03-08T11:08:47.446Z,988.39
2019-03-08T11:09:47.453Z,988.36
2019-03-08T11:10:48.457Z,988.35
2019-03-08T11:11:47.496Z,988.41
2019-03-08T11:12:47.469Z,988.36
2019-03-08T11:13:47.472Z,988.33
2019-03-08T11:14:47.478Z,988.29
2019-03-08T11:15:47.483Z,988.32
2019-03-08T11:16:47.487Z,988.29
2019-03-08T11:17:50.698Z,988.23
2019-03-08T11:18:47.498Z,988.18
2019-03-08T11:19:47.502Z,988.14
2019-03-08T11:20:47.509Z,988.14
2019-03-08T11:21:47.515Z,988.15
2019-03-08T11:22:47.519Z,988.23
2019-03-08T11:23:47.525Z,988.12
2019-03-08T11:24:47.529Z,988.10
2019-03-08T11:25:49.058Z,988.10
2019-03-08T11:26:47.538Z,988.11
2019-03-08T11:27:47.543Z,988.14
2019-03-08T11:28:47.551Z,988.15
2019-03-08T11:29:47.554Z,988.21
2019-03-08T11:30:53.757Z,988.21
2019-03-08T11:31:47.563Z,988.22
2019-03-08T11:32:47.570Z,988.25
2019-03-08T11:33:47.575Z,988.24
2019-03-08T11:34:52.171Z,988.22
2019-03-08T11:35:47.584Z,988.20
2019-03-08T11:36:47.590Z,988.19
2019-03-08T11:37:47.594Z,988.22
2019-03-08T11:38:47.600Z,988.18
2019-03-08T11:39:47.604Z,988.10
2019-03-08T11:40:47.613Z,988.04
2019-03-08T11:41:47.616Z,988.09
2019-03-08T11:42:47.621Z,987.96
2019-03-08T11:43:47.625Z,987.99
2019-03-08T11:44:47.652Z,987.99
2019-03-08T11:45:47.639Z,987.98
2019-03-08T11:46:47.642Z,987.97
2019-03-08T11:47:47.647Z,987.96
2019-03-08T11:48:47.652Z,987.93
2019-03-08T11:49:47.656Z,987.91
2019-03-08T11:50:47.698Z,987.96
2019-03-08T11:51:47.721Z,987.91
2019-03-08T11:52:47.687Z,987.96
2019-03-08T11:53:56.022Z,987.96
2019-03-08T11:54:47.682Z,987.91
2019-03-08T11:55:47.688Z,987.92
2019-03-08T11:56:55.913Z,987.97
2019-03-08T11:57:47.696Z,987.86
2019-03-08T11:58:47.701Z,987.83
2019-03-08T11:59:47.708Z,987.86
2019-03-08T12:00:47.715Z,987.81
2019-03-08T12:01:47.716Z,987.81
2019-03-08T12:02:47.725Z,987.73
2019-03-08T12:03:47.729Z,987.84
2019-03-08T12:04:47.733Z,987.77
2019-03-08T12:05:49.825Z,987.83
2019-03-08T12:06:47.743Z,987.76
2019-03-08T12:07:47.750Z,987.76
2019-03-08T12:08:47.753Z,987.78
2019-03-08T12:09:47.759Z,987.73
2019-03-08T12:10:47.764Z,987.81
2019-03-08T12:11:47.769Z,987.72
2019-03-08T12:12:47.775Z,987.65
2019-03-08T12:13:47.779Z,987.68
2019-03-08T12:14:47.817Z,987.72
2019-03-08T12:15:47.791Z,987.64
2019-03-08T12:16:47.795Z,987.72
2019-03-08T12:17:47.799Z,987.60
2019-03-08T12:18:47.806Z,987.56
2019-03-08T12:19:47.810Z,987.51
2019-03-08T12:20:47.819Z,987.54
2019-03-08T12:21:47.820Z,987.51
2019-03-08T12:22:47.824Z,987.55
2019-03-08T12:23:47.830Z,987.44
2019-03-08T12:24:47.834Z,987.46
2019-03-08T12:25:47.841Z,987.38
2019-03-08T12:26:47.846Z,987.42
2019-03-08T12:27:47.849Z,987.37
2019-03-08T12:28:47.860Z,987.38